Time;durP1;ratioP1;P1;durP2;ratioP2;P2;SDS_P1;SDS_P2;PMS_P1;PMS_P2;Temp;Humidity;BMP_temperature;BMP_pressure;BME280_temperature;BME280_humidity;BME280_pressure;Samples;Min_cycle;Max_cycle;Signal;HPM_P1;HPM_P2
2020/12/10 00:00:07;;;;;;;10.20;5.70;;;2.20;99.90;;;;;;4909053;28;20466;-70
2020/12/10 00:02:33;;;;;;;11.20;5.90;;;2.10;99.90;;;;;;4911952;29;20535;-70
2020/12/10 00:04:59;;;;;;;11.20;5.70;;;2.10;99.90;;;;;;4911273;29;20456;-71
2020/12/10 00:07:24;;;;;;;10.73;6.40;;;2.10;99.90;;;;;;4898258;29;20234;-71
2020/12/10 00:09:52;;;;;;;11.30;6.20;;;2.10;99.90;;;;;;4919118;28;20251;-71
2020/12/10 00:12:18;;;;;;;12.20;5.77;;;2.10;99.90;;;;;;4916982;29;20229;-71
2020/12/10 00:14:45;;;;;;;16.47;6.60;;;2.10;99.90;;;;;;4920938;29;20456;-70
2020/12/10 00:17:11;;;;;;;11.73;5.63;;;2.10;99.90;;;;;;4936084;29;20602;-71
2020/12/10 00:19:37;;;;;;;10.63;6.43;;;2.00;99.90;;;;;;4904476;29;20459;-70
2020/12/10 00:22:02;;;;;;;13.03;6.57;;;2.00;99.90;;;;;;4903960;29;20534;-71
2020/12/10 00:24:28;;;;;;;12.33;6.60;;;2.00;99.90;;;;;;4901922;29;20229;-71
2020/12/10 00:26:54;;;;;;;9.93;5.50;;;2.00;99.90;;;;;;4906011;29;20251;-71
2020/12/10 00:29:19;;;;;;;10.40;5.60;;;1.90;99.90;;;;;;4920060;28;20224;-70
2020/12/10 00:31:45;;;;;;;11.37;6.17;;;2.00;99.90;;;;;;4907312;29;20689;-70
2020/12/10 00:34:11;;;;;;;9.03;5.70;;;2.00;99.90;;;;;;4919825;29;20235;-71
2020/12/10 00:36:37;;;;;;;12.47;5.63;;;2.00;99.90;;;;;;4916303;29;20521;-71
2020/12/10 00:39:04;;;;;;;8.70;5.03;;;2.00;99.90;;;;;;4915365;29;20243;-68
2020/12/10 00:41:29;;;;;;;11.57;6.00;;;2.00;99.90;;;;;;4916192;29;20224;-71
2020/12/10 00:43:55;;;;;;;10.87;6.10;;;1.90;99.90;;;;;;4918338;29;20960;-71
2020/12/10 00:46:21;;;;;;;12.40;5.50;;;1.90;99.90;;;;;;4915284;29;20591;-70
2020/12/10 00:48:47;;;;;;;9.90;5.97;;;1.90;99.90;;;;;;4916838;29;20231;-70
2020/12/10 00:51:12;;;;;;;13.00;6.43;;;1.80;99.90;;;;;;4883615;29;20471;-70
2020/12/10 00:53:38;;;;;;;8.93;5.77;;;1.90;99.90;;;;;;4919467;29;20736;-70
2020/12/10 00:56:04;;;;;;;10.30;5.80;;;1.90;99.90;;;;;;4934632;28;20216;-71
2020/12/10 00:58:29;;;;;;;14.13;7.17;;;1.90;99.90;;;;;;4905066;29;20266;-70
2020/12/10 01:00:55;;;;;;;10.07;4.77;;;1.90;99.90;;;;;;4924574;29;20224;-70
2020/12/10 01:03:21;;;;;;;9.30;5.53;;;1.90;99.90;;;;;;4904038;29;20246;-71
2020/12/10 01:05:47;;;;;;;13.83;7.27;;;1.80;99.90;;;;;;4904128;29;20235;-71
2020/12/10 01:08:12;;;;;;;11.10;6.20;;;1.90;99.90;;;;;;4919613;29;20216;-71
2020/12/10 01:10:38;;;;;;;10.17;6.13;;;1.80;99.90;;;;;;4934212;29;20641;-71
2020/12/10 01:13:04;;;;;;;11.27;6.60;;;1.80;99.90;;;;;;4901362;28;20211;-72
2020/12/10 01:15:30;;;;;;;13.63;6.50;;;1.80;99.90;;;;;;4919015;29;20212;-71
2020/12/10 01:17:55;;;;;;;8.03;4.80;;;1.90;99.90;;;;;;4884980;28;20470;-70
2020/12/10 01:20:21;;;;;;;11.13;6.53;;;1.90;99.90;;;;;;4883352;29;20283;-70
2020/12/10 01:22:47;;;;;;;17.90;7.10;;;2.00;99.90;;;;;;4904207;29;20216;-70
2020/12/10 01:25:12;;;;;;;10.17;5.33;;;2.00;99.90;;;;;;4901987;29;20220;-71
2020/12/10 01:27:38;;;;;;;9.23;5.53;;;2.00;99.90;;;;;;4934808;29;20701;-67
2020/12/10 01:30:04;;;;;;;13.50;6.90;;;2.00;99.90;;;;;;4934691;28;20242;-69
2020/12/10 01:32:30;;;;;;;14.60;6.63;;;2.00;99.90;;;;;;4919138;29;20275;-68
2020/12/10 01:34:56;;;;;;;8.20;4.73;;;2.00;99.90;;;;;;4919992;29;20464;-68
2020/12/10 01:37:22;;;;;;;9.73;5.73;;;2.00;99.90;;;;;;4900546;29;20463;-68
2020/12/10 01:39:48;;;;;;;12.53;7.00;;;1.90;99.90;;;;;;4916424;29;20258;-69
2020/12/10 01:42:14;;;;;;;10.00;5.17;;;1.90;99.90;;;;;;4898271;29;20315;-68
2020/12/10 01:44:40;;;;;;;12.23;6.43;;;1.90;99.90;;;;;;4932203;28;20282;-69
2020/12/10 01:47:07;;;;;;;11.20;6.37;;;1.80;99.90;;;;;;4930851;29;20235;-68
2020/12/10 01:49:38;;;;;;;17.10;7.20;;;1.90;99.90;;;;;;4931757;29;20459;-69
2020/12/10 01:52:05;;;;;;;14.70;5.87;;;1.90;99.90;;;;;;4930336;29;20551;-69
2020/12/10 01:54:32;;;;;;;10.00;6.30;;;1.80;99.90;;;;;;4903671;29;20455;-69
2020/12/10 01:56:58;;;;;;;12.63;6.27;;;1.80;99.90;;;;;;4902970;28;20462;-69
2020/12/10 01:59:24;;;;;;;12.27;5.70;;;1.80;99.90;;;;;;4934279;29;20468;-69
2020/12/10 02:01:50;;;;;;;10.77;5.60;;;1.80;99.90;;;;;;4934934;29;20306;-68
2020/12/10 02:04:33;;;;;;;8.30;5.07;;;1.90;99.90;;;;;;4934986;29;20301;-69
2020/12/10 02:07:00;;;;;;;9.50;5.40;;;1.90;99.90;;;;;;4919181;29;20470;-70
2020/12/10 02:09:26;;;;;;;8.47;5.03;;;1.90;99.90;;;;;;4933472;29;20468;-68
2020/12/10 02:11:52;;;;;;;11.93;6.50;;;2.00;99.90;;;;;;4914455;29;20464;-68
2020/12/10 02:14:19;;;;;;;13.20;5.87;;;2.00;99.90;;;;;;4934063;29;20247;-69
2020/12/10 02:16:44;;;;;;;11.53;6.10;;;2.00;99.90;;;;;;4915627;29;20491;-69
2020/12/10 02:19:10;;;;;;;10.27;5.37;;;2.00;99.90;;;;;;4902577;29;20610;-69
2020/12/10 02:21:36;;;;;;;8.60;5.27;;;2.00;99.90;;;;;;4916867;29;20231;-69
2020/12/10 02:24:02;;;;;;;9.07;4.93;;;2.00;99.90;;;;;;4934448;29;20278;-69
2020/12/10 02:26:28;;;;;;;10.47;6.10;;;2.00;99.90;;;;;;4918177;29;20558;-68
2020/12/10 02:29:01;;;;;;;10.10;5.80;;;2.00;99.90;;;;;;4895481;29;20223;-69
2020/12/10 02:31:28;;;;;;;12.07;6.60;;;2.00;99.90;;;;;;4918072;29;20239;-69
2020/12/10 02:34:00;;;;;;;7.63;4.80;;;2.10;99.90;;;;;;4931650;29;20459;-69
2020/12/10 02:36:25;;;;;;;6.30;3.73;;;2.20;99.90;;;;;;4910907;29;20818;-69
2020/12/10 02:38:53;;;;;;;10.50;4.90;;;2.20;99.90;;;;;;4917251;29;20468;-69
2020/12/10 02:41:19;;;;;;;9.43;5.47;;;2.30;99.90;;;;;;4911666;29;20225;-66
2020/12/10 02:43:45;;;;;;;9.17;5.00;;;2.30;99.90;;;;;;4885037;29;20498;-69
2020/12/10 02:46:11;;;;;;;9.60;4.60;;;2.30;99.90;;;;;;4930788;29;20227;-69
2020/12/10 02:48:36;;;;;;;8.60;4.43;;;2.40;99.90;;;;;;4914740;29;20235;-68
2020/12/10 02:51:03;;;;;;;11.10;5.57;;;2.40;99.90;;;;;;4901589;29;20310;-69
2020/12/10 02:53:29;;;;;;;7.10;4.67;;;2.40;99.90;;;;;;4918842;29;20231;-69
2020/12/10 02:55:55;;;;;;;9.10;5.13;;;2.40;99.90;;;;;;4951284;28;20458;-69
2020/12/10 02:58:22;;;;;;;8.53;4.87;;;2.40;99.90;;;;;;4933934;29;20948;-69
2020/12/10 03:00:48;;;;;;;7.90;4.57;;;2.50;99.90;;;;;;4920763;29;20225;-69
2020/12/10 03:03:14;;;;;;;9.60;5.23;;;2.50;99.90;;;;;;4921751;29;20972;-69
2020/12/10 03:05:39;;;;;;;9.70;4.43;;;2.50;99.90;;;;;;4955481;29;20276;-69
2020/12/10 03:08:05;;;;;;;11.93;4.93;;;2.50;99.90;;;;;;4889956;28;20568;-69
2020/12/10 03:10:31;;;;;;;8.23;4.73;;;2.50;99.90;;;;;;4921731;29;20229;-69
2020/12/10 03:12:57;;;;;;;11.40;4.83;;;2.60;99.90;;;;;;4936020;28;20230;-70
2020/12/10 03:15:23;;;;;;;7.50;5.03;;;2.60;99.90;;;;;;4937377;29;20820;-69
2020/12/10 03:17:49;;;;;;;11.47;5.50;;;2.60;99.90;;;;;;4905702;29;20224;-67
2020/12/10 03:20:16;;;;;;;15.30;5.93;;;2.60;99.90;;;;;;4904924;28;20266;-70
2020/12/10 03:22:41;;;;;;;9.57;4.90;;;2.60;99.90;;;;;;4905521;29;20459;-68
2020/12/10 03:25:07;;;;;;;9.40;5.80;;;2.60;99.90;;;;;;4905350;29;20474;-69
2020/12/10 03:27:33;;;;;;;9.87;5.53;;;2.70;99.90;;;;;;4920502;29;20299;-68
2020/12/10 03:29:59;;;;;;;6.40;3.70;;;2.70;99.90;;;;;;4924579;28;20223;-69
2020/12/10 03:32:25;;;;;;;7.80;4.50;;;2.70;99.90;;;;;;4921405;29;20606;-68
2020/12/10 03:34:50;;;;;;;7.30;4.40;;;2.70;99.90;;;;;;4921381;29;20466;-69
2020/12/10 03:37:16;;;;;;;6.73;4.60;;;2.70;99.90;;;;;;4918660;29;20446;-69
2020/12/10 03:39:42;;;;;;;12.30;6.67;;;2.70;99.90;;;;;;4933222;29;20322;-68
2020/12/10 03:42:07;;;;;;;13.67;5.50;;;2.70;99.90;;;;;;4886012;29;20222;-69
2020/12/10 03:44:33;;;;;;;7.57;4.40;;;2.70;99.90;;;;;;4899514;29;20670;-67
2020/12/10 03:46:59;;;;;;;9.80;5.23;;;2.70;99.90;;;;;;4897306;29;20697;-67
2020/12/10 03:49:25;;;;;;;10.27;5.47;;;2.70;99.90;;;;;;4931880;29;20298;-68
2020/12/10 03:51:50;;;;;;;9.07;5.80;;;2.70;99.90;;;;;;4916654;29;20230;-69
2020/12/10 03:54:17;;;;;;;10.90;6.10;;;2.70;99.90;;;;;;4935880;29;20595;-69
2020/12/10 03:56:42;;;;;;;7.30;3.80;;;2.70;99.90;;;;;;4921082;29;20299;-69
2020/12/10 03:59:08;;;;;;;8.17;4.27;;;2.80;99.90;;;;;;4901762;29;20886;-69
2020/12/10 04:01:34;;;;;;;7.97;5.03;;;2.80;99.90;;;;;;4915317;29;20236;-69
2020/12/10 04:04:00;;;;;;;9.13;4.50;;;2.80;99.90;;;;;;4920802;29;20228;-69
2020/12/10 04:06:26;;;;;;;9.37;4.70;;;2.80;99.90;;;;;;4921368;29;20471;-70
2020/12/10 04:08:52;;;;;;;8.60;4.93;;;2.80;99.90;;;;;;4889640;29;20686;-67
2020/12/10 04:11:18;;;;;;;9.47;4.40;;;2.80;99.90;;;;;;4918222;29;21047;-67
2020/12/10 04:13:44;;;;;;;11.07;5.50;;;2.80;99.90;;;;;;4920268;28;20542;-67
2020/12/10 04:16:10;;;;;;;8.27;5.20;;;2.80;99.90;;;;;;4917214;29;20461;-67
2020/12/10 04:18:38;;;;;;;10.60;5.33;;;2.80;99.90;;;;;;4936649;29;20224;-67
2020/12/10 04:21:05;;;;;;;8.17;5.30;;;2.80;99.90;;;;;;4934970;28;20465;-67
2020/12/10 04:23:56;;;;;;;6.90;4.23;;;2.80;99.90;;;;;;4928508;29;20451;-68
2020/12/10 04:26:22;;;;;;;11.07;4.03;;;2.80;99.90;;;;;;4901867;29;20454;-67
2020/12/10 04:28:47;;;;;;;8.07;5.00;;;2.80;99.90;;;;;;4903235;29;20449;-68
2020/12/10 04:31:16;;;;;;;8.73;4.77;;;2.90;99.90;;;;;;4932419;29;20731;-67
2020/12/10 04:33:42;;;;;;;9.10;4.40;;;2.80;99.90;;;;;;4917835;29;20315;-67
2020/12/10 04:36:08;;;;;;;6.97;5.50;;;2.80;99.90;;;;;;4918234;29;20545;-67
2020/12/10 04:38:34;;;;;;;11.30;5.57;;;2.80;99.90;;;;;;4917574;29;20273;-68
2020/12/10 04:41:04;;;;;;;8.23;4.90;;;2.80;99.90;;;;;;4932243;29;20227;-68
2020/12/10 04:43:30;;;;;;;5.70;4.43;;;2.80;99.90;;;;;;4934538;29;20465;-68
2020/12/10 04:45:59;;;;;;;7.53;4.57;;;2.80;99.90;;;;;;4901743;29;20468;-68
2020/12/10 04:48:30;;;;;;;8.83;5.33;;;2.80;99.90;;;;;;4917582;29;20316;-68
2020/12/10 04:50:57;;;;;;;8.07;4.00;;;2.80;99.90;;;;;;4917300;29;20481;-68
2020/12/10 04:53:27;;;;;;;9.00;4.73;;;2.80;99.90;;;;;;4935597;29;20511;-67
2020/12/10 04:55:57;;;;;;;9.53;4.80;;;2.90;99.90;;;;;;4935532;29;20451;-67
2020/12/10 04:58:23;;;;;;;12.03;5.50;;;2.90;99.90;;;;;;4918129;29;20501;-67
2020/12/10 05:00:56;;;;;;;9.27;4.83;;;2.90;99.90;;;;;;4919462;29;20486;-68
2020/12/10 05:03:23;;;;;;;6.50;4.00;;;2.90;99.90;;;;;;4935287;29;20223;-68
2020/12/10 05:05:50;;;;;;;14.73;5.97;;;2.90;99.90;;;;;;4920331;29;20510;-67
2020/12/10 05:08:28;;;;;;;7.90;4.37;;;2.90;99.90;;;;;;4935194;29;20462;-67
2020/12/10 05:10:54;;;;;;;8.20;4.97;;;2.90;99.90;;;;;;4919750;29;20461;-68
2020/12/10 05:13:20;;;;;;;9.87;5.67;;;2.90;99.90;;;;;;4903415;28;21055;-68
2020/12/10 05:15:45;;;;;;;7.47;4.30;;;2.90;99.90;;;;;;4906062;29;20246;-67
2020/12/10 05:18:13;;;;;;;10.03;5.00;;;2.90;99.90;;;;;;4919455;29;20228;-67
2020/12/10 05:20:52;;;;;;;6.60;4.60;;;2.90;99.90;;;;;;4919562;28;20224;-68
2020/12/10 05:23:41;;;;;;;15.53;5.67;;;2.90;99.90;;;;;;4934746;29;20454;-67
2020/12/10 05:26:08;;;;;;;7.63;4.80;;;2.90;99.90;;;;;;4918470;29;20477;-67
2020/12/10 05:28:48;;;;;;;8.20;4.30;;;2.90;99.90;;;;;;4919459;29;20471;-67
2020/12/10 05:31:19;;;;;;;11.80;5.17;;;3.00;99.90;;;;;;4917524;29;20471;-68
2020/12/10 05:33:55;;;;;;;11.47;5.70;;;2.90;99.90;;;;;;4888878;29;20463;-67
2020/12/10 05:36:21;;;;;;;9.53;5.30;;;3.00;99.90;;;;;;4918300;29;20451;-67
2020/12/10 05:39:10;;;;;;;11.03;6.07;;;3.00;99.90;;;;;;4916742;29;20505;-67
2020/12/10 05:41:42;;;;;;;10.47;5.47;;;2.90;99.90;;;;;;4915322;29;20952;-67
2020/12/10 05:44:23;;;;;;;9.70;5.17;;;2.90;99.90;;;;;;4901585;29;20936;-68
2020/12/10 05:47:02;;;;;;;15.73;5.30;;;2.90;99.90;;;;;;4907629;29;20522;-67
2020/12/10 05:49:28;;;;;;;6.33;4.57;;;2.90;99.90;;;;;;4930294;29;20486;-68
2020/12/10 05:51:58;;;;;;;9.90;4.80;;;3.00;99.90;;;;;;4925138;29;20465;-67
2020/12/10 05:54:25;;;;;;;8.50;4.33;;;3.00;99.90;;;;;;4903634;29;20950;-68
2020/12/10 05:56:55;;;;;;;9.43;5.30;;;3.00;99.90;;;;;;4923673;29;20467;-67
2020/12/10 05:59:24;;;;;;;10.17;5.17;;;3.00;99.90;;;;;;4930059;29;20461;-67
2020/12/10 06:01:50;;;;;;;14.40;5.93;;;3.00;99.90;;;;;;4888110;29;20531;-68
2020/12/10 06:04:16;;;;;;;6.07;3.90;;;3.00;99.90;;;;;;4903562;28;20498;-67
2020/12/10 06:06:41;;;;;;;9.60;4.23;;;3.00;99.90;;;;;;4919388;29;20230;-68
2020/12/10 06:09:07;;;;;;;9.90;5.70;;;3.00;99.90;;;;;;4902736;28;20241;-67
2020/12/10 06:11:34;;;;;;;6.00;4.07;;;3.00;99.90;;;;;;4935245;29;20227;-68
2020/12/10 06:14:05;;;;;;;8.30;4.43;;;3.00;99.90;;;;;;4919035;29;20467;-67
2020/12/10 06:16:31;;;;;;;12.50;6.43;;;3.00;99.90;;;;;;4934908;29;20462;-68
2020/12/10 06:19:03;;;;;;;14.60;6.80;;;3.00;99.90;;;;;;4898969;29;20456;-69
2020/12/10 06:21:33;;;;;;;10.30;6.10;;;3.00;99.90;;;;;;4916182;29;20463;-68
2020/12/10 06:23:59;;;;;;;10.83;5.80;;;3.00;99.90;;;;;;4918901;29;20464;-67
2020/12/10 06:26:25;;;;;;;12.83;6.40;;;3.00;99.90;;;;;;4919460;29;20835;-68
2020/12/10 06:29:12;;;;;;;10.77;5.33;;;3.00;99.90;;;;;;4913133;29;20537;-68
2020/12/10 06:32:01;;;;;;;6.83;4.57;;;3.00;99.90;;;;;;4915462;29;20465;-68
2020/12/10 06:34:34;;;;;;;11.07;5.30;;;3.00;99.90;;;;;;4934411;29;20474;-68
2020/12/10 06:37:35;;;;;;;8.20;6.00;;;3.00;99.90;;;;;;4917500;29;20460;-68
2020/12/10 06:40:05;;;;;;;8.77;5.27;;;3.00;99.90;;;;;;4916403;29;20471;-67
2020/12/10 06:42:44;;;;;;;9.47;5.40;;;3.00;99.90;;;;;;4919134;28;20489;-67
2020/12/10 06:45:28;;;;;;;10.10;5.37;;;3.00;99.90;;;;;;4923914;28;20457;-67
2020/12/10 06:47:54;;;;;;;6.00;4.77;;;3.00;99.90;;;;;;4954532;28;20464;-70
2020/12/10 06:50:40;;;;;;;11.10;5.80;;;3.00;99.90;;;;;;4971795;28;20548;-67
2020/12/10 06:53:11;;;;;;;8.20;4.63;;;3.10;99.90;;;;;;4938561;29;20238;-68
2020/12/10 06:55:58;;;;;;;8.43;5.17;;;3.00;99.90;;;;;;4938440;29;20469;-67
2020/12/10 06:58:41;;;;;;;11.50;5.53;;;3.00;99.90;;;;;;4922084;29;20465;-69
2020/12/10 07:01:34;;;;;;;9.10;5.20;;;3.00;99.90;;;;;;4921173;28;20464;-68
2020/12/10 07:04:29;;;;;;;6.03;4.50;;;3.00;99.90;;;;;;4923539;28;20472;-67
2020/12/10 07:07:17;;;;;;;8.87;4.37;;;3.10;99.90;;;;;;4938192;29;20486;-67
2020/12/10 07:09:54;;;;;;;8.10;5.33;;;3.10;99.90;;;;;;4937698;29;20470;-70
2020/12/10 07:12:31;;;;;;;10.10;6.03;;;3.10;99.90;;;;;;4921484;28;20474;-68
2020/12/10 07:15:14;;;;;;;9.07;4.47;;;3.10;99.90;;;;;;4937202;29;20462;-67
2020/12/10 07:17:40;;;;;;;7.30;4.60;;;3.10;99.90;;;;;;4910875;29;20467;-67
2020/12/10 07:20:07;;;;;;;6.77;5.20;;;3.10;99.90;;;;;;4921036;28;20467;-67
2020/12/10 07:22:32;;;;;;;9.77;4.97;;;3.10;99.90;;;;;;4921980;29;20459;-67
2020/12/10 07:24:58;;;;;;;5.87;4.47;;;3.10;99.90;;;;;;4918059;29;20471;-68
2020/12/10 07:27:27;;;;;;;13.80;5.47;;;3.10;99.90;;;;;;4918124;29;20230;-67
2020/12/10 07:29:53;;;;;;;10.60;6.00;;;3.10;99.90;;;;;;4886988;29;20224;-67
2020/12/10 07:32:18;;;;;;;7.60;4.90;;;3.10;99.90;;;;;;4888633;28;20542;-67
2020/12/10 07:34:45;;;;;;;9.43;5.10;;;3.10;99.90;;;;;;4906238;29;20223;-68
2020/12/10 07:37:14;;;;;;;8.30;4.40;;;3.10;99.90;;;;;;4935179;28;20231;-68
2020/12/10 07:39:39;;;;;;;7.73;4.60;;;3.10;99.90;;;;;;4919092;29;20469;-69
2020/12/10 07:42:18;;;;;;;9.27;5.07;;;3.10;99.90;;;;;;4924420;28;20458;-69
2020/12/10 07:44:47;;;;;;;10.40;4.50;;;3.00;99.90;;;;;;4929280;29;20218;-68
2020/12/10 07:47:13;;;;;;;7.80;4.17;;;3.10;99.90;;;;;;4899289;29;20460;-67
2020/12/10 07:49:40;;;;;;;11.60;5.30;;;3.10;99.90;;;;;;4900071;29;20487;-67
2020/12/10 07:52:11;;;;;;;9.03;4.17;;;3.10;99.90;;;;;;4906131;29;20227;-68
2020/12/10 07:54:47;;;;;;;5.03;3.43;;;3.10;99.90;;;;;;4937352;29;20461;-68
2020/12/10 07:57:29;;;;;;;7.00;3.50;;;3.10;99.90;;;;;;4921160;29;20462;-67
2020/12/10 08:00:11;;;;;;;5.90;3.43;;;3.10;99.90;;;;;;4921282;29;20463;-68
2020/12/10 08:02:37;;;;;;;11.73;5.00;;;3.10;99.90;;;;;;4936964;29;20463;-68
2020/12/10 08:05:11;;;;;;;8.43;5.10;;;3.10;99.90;;;;;;4936798;29;20469;-68
2020/12/10 08:07:36;;;;;;;8.40;5.37;;;3.10;99.90;;;;;;4938677;29;20227;-69
2020/12/10 08:10:02;;;;;;;9.43;5.23;;;3.10;99.90;;;;;;4901423;29;20468;-68
2020/12/10 08:12:28;;;;;;;9.53;5.30;;;3.10;99.90;;;;;;4934805;29;20240;-67
2020/12/10 08:14:53;;;;;;;7.60;4.40;;;3.10;99.90;;;;;;4896233;29;20227;-67
2020/12/10 08:17:20;;;;;;;8.27;4.97;;;3.10;99.90;;;;;;4900131;29;20593;-67
2020/12/10 08:19:56;;;;;;;5.63;3.70;;;3.10;99.90;;;;;;4931083;29;20292;-68
2020/12/10 08:22:23;;;;;;;5.07;3.50;;;3.10;99.90;;;;;;4907579;29;20459;-68
2020/12/10 08:24:49;;;;;;;6.13;3.70;;;3.10;99.90;;;;;;4900742;29;20447;-68
2020/12/10 08:27:17;;;;;;;4.70;3.00;;;3.10;99.90;;;;;;4917616;29;20890;-69
2020/12/10 08:30:07;;;;;;;7.70;3.87;;;3.10;99.90;;;;;;4928759;29;20217;-67
2020/12/10 08:32:33;;;;;;;5.80;3.60;;;3.10;99.90;;;;;;4933394;29;20517;-67
2020/12/10 08:35:07;;;;;;;6.17;4.20;;;3.10;99.90;;;;;;4919893;29;20956;-67
2020/12/10 08:37:53;;;;;;;6.17;4.50;;;3.10;99.90;;;;;;4915278;29;20693;-67
2020/12/10 08:40:27;;;;;;;10.43;5.00;;;3.10;99.90;;;;;;4916543;28;20502;-69
2020/12/10 08:42:53;;;;;;;9.57;4.87;;;3.10;99.90;;;;;;4915176;29;20459;-67
2020/12/10 08:45:33;;;;;;;9.30;5.53;;;3.10;99.90;;;;;;4915885;29;20519;-67
2020/12/10 08:48:00;;;;;;;8.80;6.27;;;3.10;99.90;;;;;;4930876;29;20460;-67
2020/12/10 08:50:28;;;;;;;15.80;7.20;;;3.10;99.90;;;;;;4898492;29;20476;-67
2020/12/10 08:53:08;;;;;;;11.30;6.67;;;3.10;99.90;;;;;;4899057;29;20466;-70
2020/12/10 08:55:42;;;;;;;9.57;5.90;;;3.10;99.90;;;;;;4901036;29;20474;-67
2020/12/10 08:58:20;;;;;;;7.43;4.63;;;3.10;99.90;;;;;;4941259;29;20468;-67
2020/12/10 09:00:47;;;;;;;9.27;5.87;;;3.10;99.90;;;;;;4918575;29;20471;-67
2020/12/10 09:03:14;;;;;;;10.23;6.07;;;3.10;99.90;;;;;;4952221;29;20472;-67
2020/12/10 09:05:40;;;;;;;16.50;8.10;;;3.10;99.90;;;;;;4889031;29;20474;-67
2020/12/10 09:08:06;;;;;;;14.27;8.77;;;3.10;99.90;;;;;;4919556;29;20460;-67
2020/12/10 09:10:35;;;;;;;17.97;8.93;;;3.10;99.90;;;;;;4918278;29;20481;-67
2020/12/10 09:13:01;;;;;;;20.63;8.17;;;3.10;99.90;;;;;;4899968;29;20234;-67
2020/12/10 09:15:28;;;;;;;8.87;5.67;;;3.10;99.90;;;;;;4926180;29;20843;-68
2020/12/10 09:17:53;;;;;;;11.57;5.93;;;3.10;99.90;;;;;;4920023;29;20550;-68
2020/12/10 09:20:20;;;;;;;7.43;4.57;;;3.10;99.90;;;;;;4919734;28;20539;-68
2020/12/10 09:22:46;;;;;;;8.07;3.93;;;3.10;99.90;;;;;;4926324;28;20266;-67
2020/12/10 09:25:11;;;;;;;6.57;3.60;;;3.10;99.90;;;;;;4924011;29;20534;-68
2020/12/10 09:27:38;;;;;;;10.33;4.90;;;3.10;99.90;;;;;;4917016;29;20267;-68
2020/12/10 09:30:05;;;;;;;7.07;4.70;;;3.10;99.90;;;;;;4883856;29;20235;-68
2020/12/10 09:32:35;;;;;;;9.17;4.37;;;3.00;99.90;;;;;;4903056;28;20543;-67
2020/12/10 09:35:07;;;;;;;8.00;4.27;;;3.00;99.90;;;;;;4919263;28;20825;-67
2020/12/10 09:37:47;;;;;;;18.70;11.60;;;3.00;99.90;;;;;;4913707;29;20550;-67
2020/12/10 09:40:14;;;;;;;18.80;10.20;;;3.00;99.90;;;;;;4913567;28;21056;-67
2020/12/10 09:42:41;;;;;;;14.23;7.70;;;2.90;99.90;;;;;;4950431;28;20466;-68
2020/12/10 09:45:07;;;;;;;10.07;6.40;;;2.90;99.90;;;;;;4932588;28;20466;-67
2020/12/10 09:47:33;;;;;;;9.40;5.53;;;3.00;99.90;;;;;;4901343;29;20507;-69
2020/12/10 09:50:01;;;;;;;11.10;5.10;;;3.00;99.90;;;;;;4947870;28;20475;-67
2020/12/10 09:52:27;;;;;;;9.10;4.20;;;3.00;99.90;;;;;;4885403;29;20462;-67
2020/12/10 09:55:08;;;;;;;10.50;5.70;;;3.10;99.90;;;;;;4902632;29;20462;-68
2020/12/10 09:57:34;;;;;;;14.40;5.47;;;3.10;99.90;;;;;;4904925;29;20452;-70
2020/12/10 10:00:03;;;;;;;12.33;7.57;;;3.10;99.90;;;;;;4903653;29;20463;-67
2020/12/10 10:02:37;;;;;;;7.30;4.70;;;3.00;99.90;;;;;;4917153;29;20463;-67
2020/12/10 10:05:04;;;;;;;11.00;6.67;;;3.00;99.90;;;;;;4922677;29;20474;-67
2020/12/10 10:07:29;;;;;;;15.57;7.83;;;3.00;99.90;;;;;;4919910;29;20223;-67
2020/12/10 10:09:55;;;;;;;17.10;8.37;;;3.00;99.90;;;;;;4918979;29;20557;-67
2020/12/10 10:12:21;;;;;;;10.67;6.23;;;3.00;99.90;;;;;;4899503;29;20251;-68
2020/12/10 10:14:48;;;;;;;14.87;5.50;;;3.00;99.90;;;;;;4900818;29;20217;-67
2020/12/10 10:17:13;;;;;;;10.87;4.83;;;3.00;99.90;;;;;;4893732;28;20224;-67
2020/12/10 10:19:39;;;;;;;13.47;6.93;;;3.00;99.90;;;;;;4887372;29;20464;-68
2020/12/10 10:22:05;;;;;;;11.07;6.07;;;3.10;99.90;;;;;;4886523;28;20235;-69
2020/12/10 10:24:32;;;;;;;13.73;7.37;;;3.10;99.90;;;;;;4903458;29;20229;-68
2020/12/10 10:26:58;;;;;;;14.60;7.87;;;3.10;99.90;;;;;;4918824;28;20467;-68
2020/12/10 10:29:24;;;;;;;20.13;9.50;;;3.10;99.90;;;;;;4903057;29;20542;-67
2020/12/10 10:31:50;;;;;;;16.70;8.53;;;3.10;99.90;;;;;;4902939;29;20552;-68
2020/12/10 10:34:17;;;;;;;16.50;7.77;;;3.10;99.90;;;;;;4918183;29;20242;-68
2020/12/10 10:36:45;;;;;;;15.80;7.93;;;3.10;99.90;;;;;;4931804;29;20481;-67
2020/12/10 10:39:11;;;;;;;16.20;9.40;;;3.10;99.90;;;;;;4932009;29;20471;-67
2020/12/10 10:41:44;;;;;;;22.93;12.33;;;3.10;99.90;;;;;;4915088;29;20466;-69
2020/12/10 10:44:10;;;;;;;16.90;8.80;;;3.10;99.90;;;;;;4901734;28;20470;-67
2020/12/10 10:46:35;;;;;;;14.30;7.90;;;3.10;99.90;;;;;;4900289;29;20458;-67
2020/12/10 10:49:01;;;;;;;14.00;7.43;;;3.10;99.90;;;;;;4899976;29;20817;-67
2020/12/10 10:51:27;;;;;;;10.63;6.47;;;3.10;99.90;;;;;;4912660;29;20238;-67
2020/12/10 10:53:53;;;;;;;14.10;6.67;;;3.10;99.90;;;;;;4906287;29;20938;-67
2020/12/10 10:56:22;;;;;;;7.47;4.53;;;3.10;99.90;;;;;;4897222;29;20221;-67
2020/12/10 10:58:48;;;;;;;11.90;5.33;;;3.10;99.90;;;;;;4918856;29;20243;-67
2020/12/10 11:01:14;;;;;;;9.23;5.80;;;3.10;99.90;;;;;;4914934;29;20858;-69
2020/12/10 11:03:41;;;;;;;8.80;5.90;;;3.10;99.90;;;;;;4915498;29;20228;-67
2020/12/10 11:06:09;;;;;;;10.23;5.60;;;3.10;99.90;;;;;;4932102;29;20221;-67
2020/12/10 11:08:34;;;;;;;14.53;6.60;;;3.10;99.90;;;;;;4915667;29;20827;-67
2020/12/10 11:11:00;;;;;;;10.67;7.27;;;3.10;99.90;;;;;;4883230;29;20459;-67
2020/12/10 11:13:26;;;;;;;10.87;5.83;;;3.10;99.90;;;;;;4899316;29;20275;-67
2020/12/10 11:15:51;;;;;;;9.73;6.23;;;3.10;99.90;;;;;;4883806;29;20234;-67
2020/12/10 11:18:17;;;;;;;7.13;5.37;;;3.10;99.90;;;;;;4884510;29;20240;-68
2020/12/10 11:20:43;;;;;;;10.00;5.13;;;3.10;99.90;;;;;;4920611;29;20219;-69
2020/12/10 11:23:09;;;;;;;8.07;5.80;;;3.10;99.90;;;;;;4921261;29;20223;-68
2020/12/10 11:25:34;;;;;;;9.30;5.43;;;3.20;99.90;;;;;;4906159;29;20283;-67
2020/12/10 11:28:00;;;;;;;9.73;5.70;;;3.10;99.90;;;;;;4905131;29;20249;-67
2020/12/10 11:30:25;;;;;;;7.87;4.70;;;3.10;99.90;;;;;;4920346;28;20695;-69
2020/12/10 11:32:51;;;;;;;9.03;5.10;;;3.10;99.90;;;;;;4916805;29;20294;-67
2020/12/10 11:35:17;;;;;;;7.00;5.30;;;3.10;99.90;;;;;;4904946;29;20238;-67
2020/12/10 11:37:42;;;;;;;9.00;5.83;;;3.10;99.90;;;;;;4900494;29;20259;-67
2020/12/10 11:40:08;;;;;;;9.20;5.60;;;3.20;99.90;;;;;;4911850;28;20673;-68
2020/12/10 11:42:34;;;;;;;7.20;4.20;;;3.20;99.90;;;;;;4951588;28;20246;-71
2020/12/10 11:45:03;;;;;;;8.10;5.00;;;3.20;99.90;;;;;;4918564;28;20621;-69
2020/12/10 11:47:29;;;;;;;9.70;4.80;;;3.20;99.90;;;;;;4904265;29;20241;-69
2020/12/10 11:49:55;;;;;;;7.33;5.33;;;3.20;99.90;;;;;;4933371;29;20863;-70
2020/12/10 11:52:20;;;;;;;7.40;5.00;;;3.20;99.90;;;;;;4902226;28;20748;-71
2020/12/10 11:54:46;;;;;;;8.80;4.30;;;3.20;99.90;;;;;;4903548;29;20232;-71
2020/12/10 11:57:12;;;;;;;9.03;5.90;;;3.20;99.90;;;;;;4920340;28;20344;-71
2020/12/10 11:59:39;;;;;;;6.70;4.13;;;3.20;99.90;;;;;;4903535;29;20255;-72
2020/12/10 12:02:08;;;;;;;7.07;4.80;;;3.30;99.90;;;;;;4927050;29;20228;-71
2020/12/10 12:04:34;;;;;;;8.27;4.60;;;3.30;99.90;;;;;;4929057;28;20465;-71
2020/12/10 12:07:01;;;;;;;10.00;5.43;;;3.30;99.90;;;;;;4911245;28;20530;-72
2020/12/10 12:09:27;;;;;;;8.47;4.73;;;3.30;99.90;;;;;;4898431;29;20470;-71
2020/12/10 12:11:55;;;;;;;6.53;3.80;;;3.30;99.90;;;;;;4912100;29;22022;-69
2020/12/10 12:14:20;;;;;;;4.93;2.80;;;3.30;99.90;;;;;;4927609;28;20302;-71
2020/12/10 12:16:47;;;;;;;4.27;3.20;;;3.30;99.90;;;;;;4883731;29;20565;-71
2020/12/10 12:19:20;;;;;;;3.90;3.00;;;3.30;99.90;;;;;;4939585;28;20237;-71
2020/12/10 12:21:45;;;;;;;7.70;2.50;;;3.30;99.90;;;;;;4915679;28;20472;-71
2020/12/10 12:24:11;;;;;;;4.13;3.60;;;3.30;99.90;;;;;;4913487;28;20470;-71
2020/12/10 12:26:37;;;;;;;5.73;3.23;;;3.30;99.90;;;;;;4898891;29;20278;-71
2020/12/10 12:29:02;;;;;;;6.63;3.27;;;3.30;99.90;;;;;;4913703;29;20245;-70
2020/12/10 12:31:33;;;;;;;4.93;3.10;;;3.30;99.90;;;;;;4911888;28;20232;-70
2020/12/10 12:33:59;;;;;;;6.17;2.87;;;3.30;99.90;;;;;;4899390;29;20223;-69
2020/12/10 12:36:26;;;;;;;5.43;2.80;;;3.30;99.90;;;;;;4927318;29;20453;-67
2020/12/10 12:38:51;;;;;;;3.30;2.70;;;3.30;99.90;;;;;;4912986;29;20456;-69
2020/12/10 12:41:17;;;;;;;4.20;2.57;;;3.30;99.90;;;;;;4913218;29;20519;-70
2020/12/10 12:43:43;;;;;;;2.30;1.80;;;3.30;99.90;;;;;;4914715;29;20494;-69
2020/12/10 12:46:09;;;;;;;2.47;2.27;;;3.30;99.90;;;;;;4926195;29;20220;-69
2020/12/10 12:48:35;;;;;;;4.03;2.87;;;3.30;99.90;;;;;;4917613;29;20675;-70
2020/12/10 12:51:02;;;;;;;2.10;1.63;;;3.30;99.90;;;;;;4914282;28;20763;-69
2020/12/10 12:53:28;;;;;;;3.63;2.50;;;3.30;99.90;;;;;;4935058;29;20469;-68
2020/12/10 12:55:57;;;;;;;5.07;2.63;;;3.30;99.90;;;;;;4899402;28;20894;-68
2020/12/10 12:58:23;;;;;;;3.87;2.80;;;3.40;99.90;;;;;;4906108;28;20454;-68